<?xml version="1.0" encoding="utf-8"?>
<gpx xmlns:xsi="http://www.w3.org/2001/XMLSchema-instance" xmlns:xsd="http://www.w3.org/2001/XMLSchema" version="1.1" creator="Shapelink.com" xmlns="http://www.topografix.com/GPX/1/1" xmlns:gpxtpx="http://www.garmin.com/xmlschemas/TrackPointExtension/v1">
  <metadata>
    <name>Löpning 4.68 km, 2012-04-19</name>
    <desc></desc>
    <author><name>Alexander Engvall</name></author> 
    <time>2012-04-19T19:26:41Z</time>
  </metadata>
  <trk>
    <name>Löpning 4.68 km, 2012-04-19</name>
    <trkseg>
      <trkpt lat="59.4582472" lon="17.8042242">
        <ele>8.30859</ele>
        <time>2012-04-19T19:26:41Z</time>
      </trkpt>
      <trkpt lat="59.4581838" lon="17.8042408">
        <ele>13.5958</ele>
        <time>2012-04-19T19:26:46Z</time>
      </trkpt>
      <trkpt lat="59.4580396" lon="17.8043155">
        <ele>15.0377</ele>
        <time>2012-04-19T19:26:51Z</time>
      </trkpt>
      <trkpt lat="59.4579352" lon="17.8043227">
        <ele>16.4797</ele>
        <time>2012-04-19T19:26:55Z</time>
      </trkpt>
      <trkpt lat="59.4578139" lon="17.8044117">
        <ele>17.4412</ele>
        <time>2012-04-19T19:27:00Z</time>
      </trkpt>
      <trkpt lat="59.4577047" lon="17.8044975">
        <ele>16.9604</ele>
        <time>2012-04-19T19:27:04Z</time>
      </trkpt>
      <trkpt lat="59.4575431" lon="17.8046562">
        <ele>18.8831</ele>
        <time>2012-04-19T19:27:11Z</time>
      </trkpt>
      <trkpt lat="59.4574011" lon="17.8048644">
        <ele>20.325</ele>
        <time>2012-04-19T19:27:17Z</time>
      </trkpt>
      <trkpt lat="59.457282" lon="17.8050726">
        <ele>19.3638</ele>
        <time>2012-04-19T19:27:22Z</time>
      </trkpt>
      <trkpt lat="59.4571839" lon="17.805241">
        <ele>20.325</ele>
        <time>2012-04-19T19:27:27Z</time>
      </trkpt>
      <trkpt lat="59.4571014" lon="17.8054172">
        <ele>20.8057</ele>
        <time>2012-04-19T19:27:31Z</time>
      </trkpt>
      <trkpt lat="59.4569901" lon="17.8054503">
        <ele>20.325</ele>
        <time>2012-04-19T19:27:35Z</time>
      </trkpt>
      <trkpt lat="59.4568566" lon="17.8053768">
        <ele>20.325</ele>
        <time>2012-04-19T19:27:40Z</time>
      </trkpt>
      <trkpt lat="59.456697" lon="17.8052579">
        <ele>21.767</ele>
        <time>2012-04-19T19:27:46Z</time>
      </trkpt>
      <trkpt lat="59.4565572" lon="17.8051445">
        <ele>21.767</ele>
        <time>2012-04-19T19:27:51Z</time>
      </trkpt>
      <trkpt lat="59.4564317" lon="17.8050227">
        <ele>19.3638</ele>
        <time>2012-04-19T19:27:56Z</time>
      </trkpt>
      <trkpt lat="59.4563265" lon="17.8049214">
        <ele>20.325</ele>
        <time>2012-04-19T19:28:00Z</time>
      </trkpt>
      <trkpt lat="59.4562003" lon="17.8047872">
        <ele>22.2476</ele>
        <time>2012-04-19T19:28:05Z</time>
      </trkpt>
      <trkpt lat="59.4561446" lon="17.8047711">
        <ele>23.6896</ele>
        <time>2012-04-19T19:28:07Z</time>
      </trkpt>
      <trkpt lat="59.456006" lon="17.8047285">
        <ele>26.5736</ele>
        <time>2012-04-19T19:28:12Z</time>
      </trkpt>
      <trkpt lat="59.4559787" lon="17.8047153">
        <ele>26.5736</ele>
        <time>2012-04-19T19:28:13Z</time>
      </trkpt>
      <trkpt lat="59.4558067" lon="17.8045328">
        <ele>29.9381</ele>
        <time>2012-04-19T19:28:20Z</time>
      </trkpt>
      <trkpt lat="59.4556739" lon="17.8044488">
        <ele>31.3801</ele>
        <time>2012-04-19T19:28:25Z</time>
      </trkpt>
      <trkpt lat="59.4555678" lon="17.804364">
        <ele>32.3416</ele>
        <time>2012-04-19T19:28:29Z</time>
      </trkpt>
      <trkpt lat="59.4554325" lon="17.8042675">
        <ele>33.3029</ele>
        <time>2012-04-19T19:28:34Z</time>
      </trkpt>
      <trkpt lat="59.4552918" lon="17.804265">
        <ele>33.3029</ele>
        <time>2012-04-19T19:28:39Z</time>
      </trkpt>
      <trkpt lat="59.4552072" lon="17.8042427">
        <ele>32.3416</ele>
        <time>2012-04-19T19:28:42Z</time>
      </trkpt>
      <trkpt lat="59.455029" lon="17.8042698">
        <ele>30.4188</ele>
        <time>2012-04-19T19:28:48Z</time>
      </trkpt>
      <trkpt lat="59.4548633" lon="17.804325">
        <ele>28.0155</ele>
        <time>2012-04-19T19:28:54Z</time>
      </trkpt>
      <trkpt lat="59.4548378" lon="17.8043426">
        <ele>28.0155</ele>
        <time>2012-04-19T19:28:55Z</time>
      </trkpt>
      <trkpt lat="59.4547079" lon="17.8044081">
        <ele>24.651</ele>
        <time>2012-04-19T19:29:00Z</time>
      </trkpt>
      <trkpt lat="59.4546094" lon="17.8045257">
        <ele>26.0929</ele>
        <time>2012-04-19T19:29:04Z</time>
      </trkpt>
      <trkpt lat="59.4545225" lon="17.804666">
        <ele>27.5349</ele>
        <time>2012-04-19T19:29:08Z</time>
      </trkpt>
      <trkpt lat="59.4544208" lon="17.8048606">
        <ele>28.4962</ele>
        <time>2012-04-19T19:29:12Z</time>
      </trkpt>
      <trkpt lat="59.4543371" lon="17.8049934">
        <ele>29.9381</ele>
        <time>2012-04-19T19:29:16Z</time>
      </trkpt>
      <trkpt lat="59.4542934" lon="17.8050652">
        <ele>31.3801</ele>
        <time>2012-04-19T19:29:18Z</time>
      </trkpt>
      <trkpt lat="59.4542252" lon="17.8051552">
        <ele>32.8223</ele>
        <time>2012-04-19T19:29:21Z</time>
      </trkpt>
      <trkpt lat="59.4541194" lon="17.8050872">
        <ele>31.8607</ele>
        <time>2012-04-19T19:29:26Z</time>
      </trkpt>
      <trkpt lat="59.4541308" lon="17.8049617">
        <ele>29.9381</ele>
        <time>2012-04-19T19:29:29Z</time>
      </trkpt>
      <trkpt lat="59.4542035" lon="17.8048037">
        <ele>28.4962</ele>
        <time>2012-04-19T19:29:33Z</time>
      </trkpt>
      <trkpt lat="59.4542313" lon="17.8047715">
        <ele>27.5349</ele>
        <time>2012-04-19T19:29:34Z</time>
      </trkpt>
      <trkpt lat="59.4543653" lon="17.8045795">
        <ele>25.6123</ele>
        <time>2012-04-19T19:29:40Z</time>
      </trkpt>
      <trkpt lat="59.4545174" lon="17.8043996">
        <ele>24.1703</ele>
        <time>2012-04-19T19:29:46Z</time>
      </trkpt>
      <trkpt lat="59.4546618" lon="17.8042696">
        <ele>21.767</ele>
        <time>2012-04-19T19:29:51Z</time>
      </trkpt>
      <trkpt lat="59.4547725" lon="17.804175">
        <ele>23.6896</ele>
        <time>2012-04-19T19:29:56Z</time>
      </trkpt>
      <trkpt lat="59.4548166" lon="17.8040595">
        <ele>26.5736</ele>
        <time>2012-04-19T19:29:59Z</time>
      </trkpt>
      <trkpt lat="59.4549538" lon="17.8037476">
        <ele>22.2476</ele>
        <time>2012-04-19T19:30:05Z</time>
      </trkpt>
      <trkpt lat="59.4550213" lon="17.8035936">
        <ele>20.8057</ele>
        <time>2012-04-19T19:30:09Z</time>
      </trkpt>
      <trkpt lat="59.4550778" lon="17.8035742">
        <ele>21.767</ele>
        <time>2012-04-19T19:30:11Z</time>
      </trkpt>
      <trkpt lat="59.4550351" lon="17.8034483">
        <ele>21.767</ele>
        <time>2012-04-19T19:30:14Z</time>
      </trkpt>
      <trkpt lat="59.4549537" lon="17.8032022">
        <ele>18.4023</ele>
        <time>2012-04-19T19:30:19Z</time>
      </trkpt>
      <trkpt lat="59.4548566" lon="17.8029557">
        <ele>22.2476</ele>
        <time>2012-04-19T19:30:24Z</time>
      </trkpt>
      <trkpt lat="59.4547934" lon="17.8027708">
        <ele>23.209</ele>
        <time>2012-04-19T19:30:28Z</time>
      </trkpt>
      <trkpt lat="59.4547803" lon="17.8027199">
        <ele>23.209</ele>
        <time>2012-04-19T19:30:29Z</time>
      </trkpt>
      <trkpt lat="59.4546935" lon="17.8024426">
        <ele>24.1703</ele>
        <time>2012-04-19T19:30:35Z</time>
      </trkpt>
      <trkpt lat="59.4546047" lon="17.8024296">
        <ele>25.6123</ele>
        <time>2012-04-19T19:30:39Z</time>
      </trkpt>
      <trkpt lat="59.4544798" lon="17.802483">
        <ele>32.3416</ele>
        <time>2012-04-19T19:30:44Z</time>
      </trkpt>
      <trkpt lat="59.454424" lon="17.802296">
        <ele>34.2642</ele>
        <time>2012-04-19T19:30:48Z</time>
      </trkpt>
      <trkpt lat="59.4544019" lon="17.802123">
        <ele>34.2642</ele>
        <time>2012-04-19T19:30:51Z</time>
      </trkpt>
      <trkpt lat="59.4544036" lon="17.8017642">
        <ele>29.4575</ele>
        <time>2012-04-19T19:30:56Z</time>
      </trkpt>
      <trkpt lat="59.4544327" lon="17.8015528">
        <ele>31.3801</ele>
        <time>2012-04-19T19:31:00Z</time>
      </trkpt>
      <trkpt lat="59.4544824" lon="17.8013161">
        <ele>36.1868</ele>
        <time>2012-04-19T19:31:05Z</time>
      </trkpt>
      <trkpt lat="59.4544839" lon="17.8012674">
        <ele>37.1481</ele>
        <time>2012-04-19T19:31:06Z</time>
      </trkpt>
      <trkpt lat="59.4545348" lon="17.8009856">
        <ele>44.358</ele>
        <time>2012-04-19T19:31:12Z</time>
      </trkpt>
      <trkpt lat="59.4545533" lon="17.8008209">
        <ele>53.0098</ele>
        <time>2012-04-19T19:31:16Z</time>
      </trkpt>
      <trkpt lat="59.454625" lon="17.8005943">
        <ele>53.9712</ele>
        <time>2012-04-19T19:31:22Z</time>
      </trkpt>
      <trkpt lat="59.4547244" lon="17.800305">
        <ele>41.474</ele>
        <time>2012-04-19T19:31:28Z</time>
      </trkpt>
      <trkpt lat="59.454779" lon="17.8000325">
        <ele>35.2255</ele>
        <time>2012-04-19T19:31:33Z</time>
      </trkpt>
      <trkpt lat="59.4548424" lon="17.7997543">
        <ele>27.5349</ele>
        <time>2012-04-19T19:31:39Z</time>
      </trkpt>
      <trkpt lat="59.454881" lon="17.79958">
        <ele>26.5736</ele>
        <time>2012-04-19T19:31:43Z</time>
      </trkpt>
      <trkpt lat="59.4548952" lon="17.7994915">
        <ele>26.0929</ele>
        <time>2012-04-19T19:31:45Z</time>
      </trkpt>
      <trkpt lat="59.454925" lon="17.7992273">
        <ele>27.0543</ele>
        <time>2012-04-19T19:31:51Z</time>
      </trkpt>
      <trkpt lat="59.4548991" lon="17.7990659">
        <ele>28.4962</ele>
        <time>2012-04-19T19:31:54Z</time>
      </trkpt>
      <trkpt lat="59.454887" lon="17.7990202">
        <ele>29.4575</ele>
        <time>2012-04-19T19:31:55Z</time>
      </trkpt>
      <trkpt lat="59.4547869" lon="17.7988358">
        <ele>36.1868</ele>
        <time>2012-04-19T19:32:01Z</time>
      </trkpt>
      <trkpt lat="59.4546244" lon="17.7987214">
        <ele>34.2642</ele>
        <time>2012-04-19T19:32:07Z</time>
      </trkpt>
      <trkpt lat="59.454596" lon="17.7987041">
        <ele>33.7834</ele>
        <time>2012-04-19T19:32:08Z</time>
      </trkpt>
      <trkpt lat="59.4545023" lon="17.7985809">
        <ele>32.8223</ele>
        <time>2012-04-19T19:32:12Z</time>
      </trkpt>
      <trkpt lat="59.4543744" lon="17.7984213">
        <ele>30.4188</ele>
        <time>2012-04-19T19:32:17Z</time>
      </trkpt>
      <trkpt lat="59.4542604" lon="17.7982059">
        <ele>31.8607</ele>
        <time>2012-04-19T19:32:23Z</time>
      </trkpt>
      <trkpt lat="59.4541494" lon="17.7979661">
        <ele>29.4575</ele>
        <time>2012-04-19T19:32:29Z</time>
      </trkpt>
      <trkpt lat="59.4540846" lon="17.7978496">
        <ele>34.2642</ele>
        <time>2012-04-19T19:32:33Z</time>
      </trkpt>
      <trkpt lat="59.4540329" lon="17.7977501">
        <ele>35.7061</ele>
        <time>2012-04-19T19:32:36Z</time>
      </trkpt>
      <trkpt lat="59.453893" lon="17.7976523">
        <ele>32.3416</ele>
        <time>2012-04-19T19:32:41Z</time>
      </trkpt>
      <trkpt lat="59.4536968" lon="17.7975214">
        <ele>29.9381</ele>
        <time>2012-04-19T19:32:47Z</time>
      </trkpt>
      <trkpt lat="59.453553" lon="17.7974474">
        <ele>27.5349</ele>
        <time>2012-04-19T19:32:52Z</time>
      </trkpt>
      <trkpt lat="59.4534149" lon="17.7973787">
        <ele>24.651</ele>
        <time>2012-04-19T19:32:57Z</time>
      </trkpt>
      <trkpt lat="59.4532778" lon="17.7973051">
        <ele>22.7283</ele>
        <time>2012-04-19T19:33:02Z</time>
      </trkpt>
      <trkpt lat="59.4531588" lon="17.7971999">
        <ele>21.767</ele>
        <time>2012-04-19T19:33:07Z</time>
      </trkpt>
      <trkpt lat="59.4530637" lon="17.7971575">
        <ele>22.7283</ele>
        <time>2012-04-19T19:33:11Z</time>
      </trkpt>
      <trkpt lat="59.4529341" lon="17.7971423">
        <ele>24.1703</ele>
        <time>2012-04-19T19:33:16Z</time>
      </trkpt>
      <trkpt lat="59.4528425" lon="17.7971212">
        <ele>26.0929</ele>
        <time>2012-04-19T19:33:20Z</time>
      </trkpt>
      <trkpt lat="59.4526576" lon="17.7970305">
        <ele>26.0929</ele>
        <time>2012-04-19T19:33:27Z</time>
      </trkpt>
      <trkpt lat="59.4525276" lon="17.7969185">
        <ele>28.4962</ele>
        <time>2012-04-19T19:33:33Z</time>
      </trkpt>
      <trkpt lat="59.4524193" lon="17.7968109">
        <ele>30.8995</ele>
        <time>2012-04-19T19:33:38Z</time>
      </trkpt>
      <trkpt lat="59.452307" lon="17.796674">
        <ele>33.7834</ele>
        <time>2012-04-19T19:33:43Z</time>
      </trkpt>
      <trkpt lat="59.4522271" lon="17.796481">
        <ele>34.2642</ele>
        <time>2012-04-19T19:33:48Z</time>
      </trkpt>
      <trkpt lat="59.4521073" lon="17.7962768">
        <ele>34.7449</ele>
        <time>2012-04-19T19:33:53Z</time>
      </trkpt>
      <trkpt lat="59.4520777" lon="17.7962265">
        <ele>34.7449</ele>
        <time>2012-04-19T19:33:54Z</time>
      </trkpt>
      <trkpt lat="59.4519628" lon="17.795934">
        <ele>31.8607</ele>
        <time>2012-04-19T19:34:00Z</time>
      </trkpt>
      <trkpt lat="59.4519329" lon="17.795608">
        <ele>28.9769</ele>
        <time>2012-04-19T19:34:06Z</time>
      </trkpt>
      <trkpt lat="59.451955" lon="17.7953449">
        <ele>27.0543</ele>
        <time>2012-04-19T19:34:11Z</time>
      </trkpt>
      <trkpt lat="59.4519888" lon="17.7950444">
        <ele>25.6123</ele>
        <time>2012-04-19T19:34:17Z</time>
      </trkpt>
      <trkpt lat="59.4520163" lon="17.7947685">
        <ele>21.767</ele>
        <time>2012-04-19T19:34:22Z</time>
      </trkpt>
      <trkpt lat="59.4519384" lon="17.7945664">
        <ele>21.767</ele>
        <time>2012-04-19T19:34:26Z</time>
      </trkpt>
      <trkpt lat="59.4518469" lon="17.7943649">
        <ele>20.325</ele>
        <time>2012-04-19T19:34:31Z</time>
      </trkpt>
      <trkpt lat="59.4517437" lon="17.7942613">
        <ele>19.3638</ele>
        <time>2012-04-19T19:34:36Z</time>
      </trkpt>
      <trkpt lat="59.451681" lon="17.7939882">
        <ele>16.4797</ele>
        <time>2012-04-19T19:34:43Z</time>
      </trkpt>
      <trkpt lat="59.4516725" lon="17.7937815">
        <ele>13.5958</ele>
        <time>2012-04-19T19:34:47Z</time>
      </trkpt>
      <trkpt lat="59.45172" lon="17.7935431">
        <ele>11.1925</ele>
        <time>2012-04-19T19:34:51Z</time>
      </trkpt>
      <trkpt lat="59.4518182" lon="17.793263">
        <ele>9.2699</ele>
        <time>2012-04-19T19:34:57Z</time>
      </trkpt>
      <trkpt lat="59.451926" lon="17.7930568">
        <ele>7.34717</ele>
        <time>2012-04-19T19:35:02Z</time>
      </trkpt>
      <trkpt lat="59.4520236" lon="17.7929181">
        <ele>6.38586</ele>
        <time>2012-04-19T19:35:07Z</time>
      </trkpt>
      <trkpt lat="59.4521591" lon="17.7927943">
        <ele>4.46326</ele>
        <time>2012-04-19T19:35:13Z</time>
      </trkpt>
      <trkpt lat="59.4523169" lon="17.7926297">
        <ele>3.98267</ele>
        <time>2012-04-19T19:35:20Z</time>
      </trkpt>
      <trkpt lat="59.4524684" lon="17.7924465">
        <ele>2.54065</ele>
        <time>2012-04-19T19:35:27Z</time>
      </trkpt>
      <trkpt lat="59.4526118" lon="17.7922688">
        <ele>2.06006</ele>
        <time>2012-04-19T19:35:34Z</time>
      </trkpt>
      <trkpt lat="59.4527286" lon="17.7922028">
        <ele>2.54065</ele>
        <time>2012-04-19T19:35:39Z</time>
      </trkpt>
      <trkpt lat="59.4528606" lon="17.7921271">
        <ele>1.57935</ele>
        <time>2012-04-19T19:35:45Z</time>
      </trkpt>
      <trkpt lat="59.4529399" lon="17.791951">
        <ele>1.09863</ele>
        <time>2012-04-19T19:35:50Z</time>
      </trkpt>
      <trkpt lat="59.4530285" lon="17.7917899">
        <ele>1.57935</ele>
        <time>2012-04-19T19:35:55Z</time>
      </trkpt>
      <trkpt lat="59.4531759" lon="17.7917226">
        <ele>3.50195</ele>
        <time>2012-04-19T19:36:01Z</time>
      </trkpt>
      <trkpt lat="59.4532875" lon="17.7915887">
        <ele>3.98267</ele>
        <time>2012-04-19T19:36:06Z</time>
      </trkpt>
      <trkpt lat="59.453458" lon="17.7915998">
        <ele>5.42456</ele>
        <time>2012-04-19T19:36:13Z</time>
      </trkpt>
      <trkpt lat="59.4536086" lon="17.7916068">
        <ele>6.86646</ele>
        <time>2012-04-19T19:36:19Z</time>
      </trkpt>
      <trkpt lat="59.4537895" lon="17.7915691">
        <ele>6.38586</ele>
        <time>2012-04-19T19:36:25Z</time>
      </trkpt>
      <trkpt lat="59.4538733" lon="17.7916165">
        <ele>5.90527</ele>
        <time>2012-04-19T19:36:28Z</time>
      </trkpt>
      <trkpt lat="59.4539361" lon="17.7917956">
        <ele>4.94385</ele>
        <time>2012-04-19T19:36:32Z</time>
      </trkpt>
      <trkpt lat="59.4539297" lon="17.7921975">
        <ele>1.57935</ele>
        <time>2012-04-19T19:36:39Z</time>
      </trkpt>
      <trkpt lat="59.4539434" lon="17.7924769">
        <ele>0</ele>
        <time>2012-04-19T19:36:44Z</time>
      </trkpt>
      <trkpt lat="59.453988" lon="17.7927131">
        <ele>0</ele>
        <time>2012-04-19T19:36:49Z</time>
      </trkpt>
      <trkpt lat="59.4540519" lon="17.7928995">
        <ele>0</ele>
        <time>2012-04-19T19:36:54Z</time>
      </trkpt>
      <trkpt lat="59.4542109" lon="17.7931315">
        <ele>0</ele>
        <time>2012-04-19T19:37:01Z</time>
      </trkpt>
      <trkpt lat="59.4543076" lon="17.7933474">
        <ele>0.137451</ele>
        <time>2012-04-19T19:37:06Z</time>
      </trkpt>
      <trkpt lat="59.4544395" lon="17.7935773">
        <ele>0.618042</ele>
        <time>2012-04-19T19:37:12Z</time>
      </trkpt>
      <trkpt lat="59.4545337" lon="17.7938459">
        <ele>1.57935</ele>
        <time>2012-04-19T19:37:18Z</time>
      </trkpt>
      <trkpt lat="59.4545954" lon="17.7940694">
        <ele>3.02124</ele>
        <time>2012-04-19T19:37:23Z</time>
      </trkpt>
      <trkpt lat="59.4546754" lon="17.7942846">
        <ele>3.02124</ele>
        <time>2012-04-19T19:37:28Z</time>
      </trkpt>
      <trkpt lat="59.4547877" lon="17.794499">
        <ele>3.98267</ele>
        <time>2012-04-19T19:37:34Z</time>
      </trkpt>
      <trkpt lat="59.4549121" lon="17.7945856">
        <ele>3.50195</ele>
        <time>2012-04-19T19:37:39Z</time>
      </trkpt>
      <trkpt lat="59.4549634" lon="17.794613">
        <ele>3.98267</ele>
        <time>2012-04-19T19:37:41Z</time>
      </trkpt>
      <trkpt lat="59.4550889" lon="17.7946465">
        <ele>3.50195</ele>
        <time>2012-04-19T19:37:46Z</time>
      </trkpt>
      <trkpt lat="59.4552263" lon="17.7946743">
        <ele>4.46326</ele>
        <time>2012-04-19T19:37:51Z</time>
      </trkpt>
      <trkpt lat="59.4553657" lon="17.7947741">
        <ele>5.42456</ele>
        <time>2012-04-19T19:37:57Z</time>
      </trkpt>
      <trkpt lat="59.4555103" lon="17.7947867">
        <ele>5.90527</ele>
        <time>2012-04-19T19:38:03Z</time>
      </trkpt>
      <trkpt lat="59.4556435" lon="17.7948104">
        <ele>5.90527</ele>
        <time>2012-04-19T19:38:08Z</time>
      </trkpt>
      <trkpt lat="59.4557709" lon="17.7948962">
        <ele>4.94385</ele>
        <time>2012-04-19T19:38:13Z</time>
      </trkpt>
      <trkpt lat="59.4559331" lon="17.7950684">
        <ele>3.50195</ele>
        <time>2012-04-19T19:38:20Z</time>
      </trkpt>
      <trkpt lat="59.4560608" lon="17.7952015">
        <ele>3.02124</ele>
        <time>2012-04-19T19:38:26Z</time>
      </trkpt>
      <trkpt lat="59.4561941" lon="17.7953517">
        <ele>3.50195</ele>
        <time>2012-04-19T19:38:32Z</time>
      </trkpt>
      <trkpt lat="59.4563417" lon="17.7955427">
        <ele>4.46326</ele>
        <time>2012-04-19T19:38:39Z</time>
      </trkpt>
      <trkpt lat="59.4564635" lon="17.7956597">
        <ele>4.46326</ele>
        <time>2012-04-19T19:38:44Z</time>
      </trkpt>
      <trkpt lat="59.4566006" lon="17.7958059">
        <ele>4.94385</ele>
        <time>2012-04-19T19:38:50Z</time>
      </trkpt>
      <trkpt lat="59.4567343" lon="17.7959557">
        <ele>5.42456</ele>
        <time>2012-04-19T19:38:56Z</time>
      </trkpt>
      <trkpt lat="59.4568887" lon="17.796138">
        <ele>5.42456</ele>
        <time>2012-04-19T19:39:03Z</time>
      </trkpt>
      <trkpt lat="59.4570403" lon="17.7962412">
        <ele>6.38586</ele>
        <time>2012-04-19T19:39:09Z</time>
      </trkpt>
      <trkpt lat="59.4571597" lon="17.7961905">
        <ele>5.90527</ele>
        <time>2012-04-19T19:39:14Z</time>
      </trkpt>
      <trkpt lat="59.4573148" lon="17.7961599">
        <ele>5.90527</ele>
        <time>2012-04-19T19:39:20Z</time>
      </trkpt>
      <trkpt lat="59.457459" lon="17.7962556">
        <ele>4.46326</ele>
        <time>2012-04-19T19:39:26Z</time>
      </trkpt>
      <trkpt lat="59.4576004" lon="17.7964074">
        <ele>4.46326</ele>
        <time>2012-04-19T19:39:32Z</time>
      </trkpt>
      <trkpt lat="59.4577331" lon="17.7965664">
        <ele>4.94385</ele>
        <time>2012-04-19T19:39:38Z</time>
      </trkpt>
      <trkpt lat="59.4578087" lon="17.7967027">
        <ele>4.46326</ele>
        <time>2012-04-19T19:39:42Z</time>
      </trkpt>
      <trkpt lat="59.4577807" lon="17.7969556">
        <ele>4.46326</ele>
        <time>2012-04-19T19:39:47Z</time>
      </trkpt>
      <trkpt lat="59.4577044" lon="17.797298">
        <ele>3.98267</ele>
        <time>2012-04-19T19:39:54Z</time>
      </trkpt>
      <trkpt lat="59.457631" lon="17.7975888">
        <ele>4.46326</ele>
        <time>2012-04-19T19:40:00Z</time>
      </trkpt>
      <trkpt lat="59.4575917" lon="17.7978025">
        <ele>4.46326</ele>
        <time>2012-04-19T19:40:04Z</time>
      </trkpt>
      <trkpt lat="59.4575249" lon="17.7980339">
        <ele>3.98267</ele>
        <time>2012-04-19T19:40:09Z</time>
      </trkpt>
      <trkpt lat="59.4574751" lon="17.7982099">
        <ele>3.98267</ele>
        <time>2012-04-19T19:40:13Z</time>
      </trkpt>
      <trkpt lat="59.4573972" lon="17.7984608">
        <ele>2.06006</ele>
        <time>2012-04-19T19:40:19Z</time>
      </trkpt>
      <trkpt lat="59.457314" lon="17.7986499">
        <ele>1.09863</ele>
        <time>2012-04-19T19:40:24Z</time>
      </trkpt>
      <trkpt lat="59.457247" lon="17.7988054">
        <ele>1.09863</ele>
        <time>2012-04-19T19:40:28Z</time>
      </trkpt>
      <trkpt lat="59.45708" lon="17.7988909">
        <ele>1.57935</ele>
        <time>2012-04-19T19:40:35Z</time>
      </trkpt>
      <trkpt lat="59.4569183" lon="17.7989351">
        <ele>5.42456</ele>
        <time>2012-04-19T19:40:42Z</time>
      </trkpt>
      <trkpt lat="59.4568073" lon="17.7988655">
        <ele>7.34717</ele>
        <time>2012-04-19T19:40:47Z</time>
      </trkpt>
      <trkpt lat="59.4567055" lon="17.7987975">
        <ele>9.2699</ele>
        <time>2012-04-19T19:40:52Z</time>
      </trkpt>
      <trkpt lat="59.4565707" lon="17.7987784">
        <ele>16.4797</ele>
        <time>2012-04-19T19:40:58Z</time>
      </trkpt>
      <trkpt lat="59.4564576" lon="17.7986711">
        <ele>15.5184</ele>
        <time>2012-04-19T19:41:03Z</time>
      </trkpt>
      <trkpt lat="59.4563945" lon="17.7985981">
        <ele>14.557</ele>
        <time>2012-04-19T19:41:06Z</time>
      </trkpt>
      <trkpt lat="59.4562857" lon="17.7984884">
        <ele>14.0764</ele>
        <time>2012-04-19T19:41:11Z</time>
      </trkpt>
      <trkpt lat="59.4561415" lon="17.7983475">
        <ele>14.0764</ele>
        <time>2012-04-19T19:41:17Z</time>
      </trkpt>
      <trkpt lat="59.4560417" lon="17.7982713">
        <ele>13.5958</ele>
        <time>2012-04-19T19:41:21Z</time>
      </trkpt>
      <trkpt lat="59.4559401" lon="17.7981832">
        <ele>13.1151</ele>
        <time>2012-04-19T19:41:26Z</time>
      </trkpt>
      <trkpt lat="59.455791" lon="17.7980833">
        <ele>14.557</ele>
        <time>2012-04-19T19:41:32Z</time>
      </trkpt>
      <trkpt lat="59.4556553" lon="17.7980073">
        <ele>14.0764</ele>
        <time>2012-04-19T19:41:37Z</time>
      </trkpt>
      <trkpt lat="59.4556111" lon="17.7980226">
        <ele>13.1151</ele>
        <time>2012-04-19T19:41:39Z</time>
      </trkpt>
      <trkpt lat="59.4555264" lon="17.7982391">
        <ele>10.2312</ele>
        <time>2012-04-19T19:41:45Z</time>
      </trkpt>
      <trkpt lat="59.4554372" lon="17.7985069">
        <ele>9.2699</ele>
        <time>2012-04-19T19:41:51Z</time>
      </trkpt>
      <trkpt lat="59.4553988" lon="17.7986873">
        <ele>10.2312</ele>
        <time>2012-04-19T19:41:55Z</time>
      </trkpt>
      <trkpt lat="59.4553708" lon="17.7990292">
        <ele>8.30859</ele>
        <time>2012-04-19T19:42:01Z</time>
      </trkpt>
      <trkpt lat="59.4553215" lon="17.7992326">
        <ele>5.42456</ele>
        <time>2012-04-19T19:42:06Z</time>
      </trkpt>
      <trkpt lat="59.4552571" lon="17.7994336">
        <ele>2.54065</ele>
        <time>2012-04-19T19:42:11Z</time>
      </trkpt>
      <trkpt lat="59.4552072" lon="17.7996917">
        <ele>1.09863</ele>
        <time>2012-04-19T19:42:16Z</time>
      </trkpt>
      <trkpt lat="59.4551698" lon="17.7999243">
        <ele>3.02124</ele>
        <time>2012-04-19T19:42:21Z</time>
      </trkpt>
      <trkpt lat="59.4551092" lon="17.8001063">
        <ele>8.78918</ele>
        <time>2012-04-19T19:42:26Z</time>
      </trkpt>
      <trkpt lat="59.4550285" lon="17.8003013">
        <ele>11.1925</ele>
        <time>2012-04-19T19:42:31Z</time>
      </trkpt>
      <trkpt lat="59.455024" lon="17.800412">
        <ele>11.1925</ele>
        <time>2012-04-19T19:42:33Z</time>
      </trkpt>
      <trkpt lat="59.4551043" lon="17.8005643">
        <ele>12.6344</ele>
        <time>2012-04-19T19:42:37Z</time>
      </trkpt>
      <trkpt lat="59.4552618" lon="17.800693">
        <ele>12.1538</ele>
        <time>2012-04-19T19:42:43Z</time>
      </trkpt>
      <trkpt lat="59.455388" lon="17.8008385">
        <ele>15.0377</ele>
        <time>2012-04-19T19:42:48Z</time>
      </trkpt>
      <trkpt lat="59.4554863" lon="17.8009717">
        <ele>18.4023</ele>
        <time>2012-04-19T19:42:52Z</time>
      </trkpt>
      <trkpt lat="59.4556045" lon="17.8011529">
        <ele>22.7283</ele>
        <time>2012-04-19T19:42:57Z</time>
      </trkpt>
      <trkpt lat="59.455703" lon="17.8013322">
        <ele>24.1703</ele>
        <time>2012-04-19T19:43:02Z</time>
      </trkpt>
      <trkpt lat="59.4558216" lon="17.8014114">
        <ele>22.2476</ele>
        <time>2012-04-19T19:43:08Z</time>
      </trkpt>
      <trkpt lat="59.4559426" lon="17.8013316">
        <ele>21.2864</ele>
        <time>2012-04-19T19:43:13Z</time>
      </trkpt>
      <trkpt lat="59.4561187" lon="17.801171">
        <ele>21.2864</ele>
        <time>2012-04-19T19:43:21Z</time>
      </trkpt>
      <trkpt lat="59.4562784" lon="17.8011161">
        <ele>19.3638</ele>
        <time>2012-04-19T19:43:27Z</time>
      </trkpt>
      <trkpt lat="59.4563289" lon="17.8010984">
        <ele>18.8831</ele>
        <time>2012-04-19T19:43:29Z</time>
      </trkpt>
      <trkpt lat="59.4564256" lon="17.8010458">
        <ele>17.9218</ele>
        <time>2012-04-19T19:43:33Z</time>
      </trkpt>
      <trkpt lat="59.4565536" lon="17.8009994">
        <ele>16.9604</ele>
        <time>2012-04-19T19:43:38Z</time>
      </trkpt>
      <trkpt lat="59.4567352" lon="17.8009364">
        <ele>15.999</ele>
        <time>2012-04-19T19:43:45Z</time>
      </trkpt>
      <trkpt lat="59.4569695" lon="17.8008142">
        <ele>14.0764</ele>
        <time>2012-04-19T19:43:54Z</time>
      </trkpt>
      <trkpt lat="59.457137" lon="17.8007499">
        <ele>12.6344</ele>
        <time>2012-04-19T19:44:00Z</time>
      </trkpt>
      <trkpt lat="59.4571877" lon="17.8007401">
        <ele>12.1538</ele>
        <time>2012-04-19T19:44:02Z</time>
      </trkpt>
      <trkpt lat="59.457197" lon="17.8008168">
        <ele>10.7118</ele>
        <time>2012-04-19T19:44:06Z</time>
      </trkpt>
      <trkpt lat="59.4571829" lon="17.8008838">
        <ele>10.2312</ele>
        <time>2012-04-19T19:44:09Z</time>
      </trkpt>
      <trkpt lat="59.4572185" lon="17.8010116">
        <ele>11.6732</ele>
        <time>2012-04-19T19:44:16Z</time>
      </trkpt>
      <trkpt lat="59.457374" lon="17.8009588">
        <ele>12.6344</ele>
        <time>2012-04-19T19:44:22Z</time>
      </trkpt>
      <trkpt lat="59.4575633" lon="17.8009448">
        <ele>12.6344</ele>
        <time>2012-04-19T19:44:29Z</time>
      </trkpt>
      <trkpt lat="59.4577692" lon="17.8009021">
        <ele>13.1151</ele>
        <time>2012-04-19T19:44:36Z</time>
      </trkpt>
      <trkpt lat="59.4579422" lon="17.8008285">
        <ele>13.1151</ele>
        <time>2012-04-19T19:44:42Z</time>
      </trkpt>
      <trkpt lat="59.4581097" lon="17.8007653">
        <ele>12.6344</ele>
        <time>2012-04-19T19:44:48Z</time>
      </trkpt>
      <trkpt lat="59.4583142" lon="17.8006907">
        <ele>10.2312</ele>
        <time>2012-04-19T19:44:55Z</time>
      </trkpt>
      <trkpt lat="59.4584931" lon="17.80062">
        <ele>9.2699</ele>
        <time>2012-04-19T19:45:01Z</time>
      </trkpt>
      <trkpt lat="59.4587055" lon="17.8005663">
        <ele>9.2699</ele>
        <time>2012-04-19T19:45:08Z</time>
      </trkpt>
      <trkpt lat="59.4588898" lon="17.8005374">
        <ele>9.2699</ele>
        <time>2012-04-19T19:45:14Z</time>
      </trkpt>
      <trkpt lat="59.459096" lon="17.800522">
        <ele>10.2312</ele>
        <time>2012-04-19T19:45:21Z</time>
      </trkpt>
      <trkpt lat="59.4592716" lon="17.8004774">
        <ele>11.1925</ele>
        <time>2012-04-19T19:45:27Z</time>
      </trkpt>
      <trkpt lat="59.4594089" lon="17.8004483">
        <ele>11.1925</ele>
        <time>2012-04-19T19:45:32Z</time>
      </trkpt>
      <trkpt lat="59.459513" lon="17.8004142">
        <ele>11.1925</ele>
        <time>2012-04-19T19:45:36Z</time>
      </trkpt>
      <trkpt lat="59.4596705" lon="17.8002972">
        <ele>11.1925</ele>
        <time>2012-04-19T19:45:42Z</time>
      </trkpt>
      <trkpt lat="59.459852" lon="17.800147">
        <ele>10.2312</ele>
        <time>2012-04-19T19:45:49Z</time>
      </trkpt>
      <trkpt lat="59.4599601" lon="17.8000382">
        <ele>11.1925</ele>
        <time>2012-04-19T19:45:54Z</time>
      </trkpt>
      <trkpt lat="59.4600899" lon="17.7999133">
        <ele>11.1925</ele>
        <time>2012-04-19T19:46:00Z</time>
      </trkpt>
      <trkpt lat="59.460197" lon="17.7998262">
        <ele>9.75061</ele>
        <time>2012-04-19T19:46:05Z</time>
      </trkpt>
      <trkpt lat="59.4603412" lon="17.799704">
        <ele>9.75061</ele>
        <time>2012-04-19T19:46:11Z</time>
      </trkpt>
      <trkpt lat="59.4604729" lon="17.7996051">
        <ele>8.30859</ele>
        <time>2012-04-19T19:46:17Z</time>
      </trkpt>
      <trkpt lat="59.4605361" lon="17.7995523">
        <ele>7.82788</ele>
        <time>2012-04-19T19:46:20Z</time>
      </trkpt>
      <trkpt lat="59.4606837" lon="17.799458">
        <ele>7.82788</ele>
        <time>2012-04-19T19:46:26Z</time>
      </trkpt>
      <trkpt lat="59.460835" lon="17.7994316">
        <ele>4.94385</ele>
        <time>2012-04-19T19:46:32Z</time>
      </trkpt>
      <trkpt lat="59.4610319" lon="17.7993956">
        <ele>3.98267</ele>
        <time>2012-04-19T19:46:39Z</time>
      </trkpt>
      <trkpt lat="59.4611665" lon="17.7993927">
        <ele>3.98267</ele>
        <time>2012-04-19T19:46:44Z</time>
      </trkpt>
      <trkpt lat="59.4613166" lon="17.7993646">
        <ele>3.98267</ele>
        <time>2012-04-19T19:46:50Z</time>
      </trkpt>
      <trkpt lat="59.4615107" lon="17.799376">
        <ele>3.50195</ele>
        <time>2012-04-19T19:46:58Z</time>
      </trkpt>
      <trkpt lat="59.4617104" lon="17.7993368">
        <ele>4.46326</ele>
        <time>2012-04-19T19:47:05Z</time>
      </trkpt>
      <trkpt lat="59.4618435" lon="17.7993086">
        <ele>5.90527</ele>
        <time>2012-04-19T19:47:10Z</time>
      </trkpt>
      <trkpt lat="59.461999" lon="17.7993417">
        <ele>7.34717</ele>
        <time>2012-04-19T19:47:16Z</time>
      </trkpt>
      <trkpt lat="59.4621144" lon="17.7993855">
        <ele>8.30859</ele>
        <time>2012-04-19T19:47:20Z</time>
      </trkpt>
      <trkpt lat="59.4622661" lon="17.7994514">
        <ele>8.78918</ele>
        <time>2012-04-19T19:47:26Z</time>
      </trkpt>
      <trkpt lat="59.462438" lon="17.7995182">
        <ele>8.78918</ele>
        <time>2012-04-19T19:47:33Z</time>
      </trkpt>
      <trkpt lat="59.4625967" lon="17.7995538">
        <ele>7.82788</ele>
        <time>2012-04-19T19:47:39Z</time>
      </trkpt>
      <trkpt lat="59.4627583" lon="17.799638">
        <ele>8.30859</ele>
        <time>2012-04-19T19:47:45Z</time>
      </trkpt>
      <trkpt lat="59.462851" lon="17.7997412">
        <ele>7.34717</ele>
        <time>2012-04-19T19:47:49Z</time>
      </trkpt>
      <trkpt lat="59.4630116" lon="17.7998952">
        <ele>6.86646</ele>
        <time>2012-04-19T19:47:55Z</time>
      </trkpt>
      <trkpt lat="59.4631618" lon="17.7999433">
        <ele>7.34717</ele>
        <time>2012-04-19T19:48:00Z</time>
      </trkpt>
      <trkpt lat="59.4633357" lon="17.8000131">
        <ele>6.86646</ele>
        <time>2012-04-19T19:48:06Z</time>
      </trkpt>
      <trkpt lat="59.4634628" lon="17.8000704">
        <ele>6.38586</ele>
        <time>2012-04-19T19:48:11Z</time>
      </trkpt>
      <trkpt lat="59.4636279" lon="17.8001178">
        <ele>6.38586</ele>
        <time>2012-04-19T19:48:17Z</time>
      </trkpt>
      <trkpt lat="59.4638043" lon="17.800177">
        <ele>5.90527</ele>
        <time>2012-04-19T19:48:24Z</time>
      </trkpt>
      <trkpt lat="59.4639591" lon="17.8002377">
        <ele>5.90527</ele>
        <time>2012-04-19T19:48:30Z</time>
      </trkpt>
      <trkpt lat="59.4640664" lon="17.8002826">
        <ele>5.90527</ele>
        <time>2012-04-19T19:48:34Z</time>
      </trkpt>
      <trkpt lat="59.4641959" lon="17.800385">
        <ele>4.94385</ele>
        <time>2012-04-19T19:48:39Z</time>
      </trkpt>
      <trkpt lat="59.4642776" lon="17.8004732">
        <ele>3.98267</ele>
        <time>2012-04-19T19:48:43Z</time>
      </trkpt>
      <trkpt lat="59.4644428" lon="17.8006384">
        <ele>3.50195</ele>
        <time>2012-04-19T19:48:50Z</time>
      </trkpt>
      <trkpt lat="59.4645972" lon="17.8007504">
        <ele>3.98267</ele>
        <time>2012-04-19T19:48:56Z</time>
      </trkpt>
      <trkpt lat="59.4646911" lon="17.8009132">
        <ele>3.02124</ele>
        <time>2012-04-19T19:49:00Z</time>
      </trkpt>
      <trkpt lat="59.4646297" lon="17.8011094">
        <ele>7.34717</ele>
        <time>2012-04-19T19:49:05Z</time>
      </trkpt>
      <trkpt lat="59.4646018" lon="17.8011087">
        <ele>8.78918</ele>
        <time>2012-04-19T19:49:06Z</time>
      </trkpt>
      <trkpt lat="59.464549" lon="17.8011042">
        <ele>10.2312</ele>
        <time>2012-04-19T19:49:08Z</time>
      </trkpt>
      <trkpt lat="59.4643988" lon="17.801104">
        <ele>15.0377</ele>
        <time>2012-04-19T19:49:14Z</time>
      </trkpt>
      <trkpt lat="59.464281" lon="17.8011021">
        <ele>18.4023</ele>
        <time>2012-04-19T19:49:19Z</time>
      </trkpt>
      <trkpt lat="59.4642554" lon="17.8011074">
        <ele>18.8831</ele>
        <time>2012-04-19T19:49:20Z</time>
      </trkpt>
      <trkpt lat="59.4641725" lon="17.8011042">
        <ele>23.209</ele>
        <time>2012-04-19T19:49:24Z</time>
      </trkpt>
      <trkpt lat="59.4641249" lon="17.801097">
        <ele>23.209</ele>
        <time>2012-04-19T19:49:26Z</time>
      </trkpt>
      <trkpt lat="59.4639801" lon="17.8010384">
        <ele>24.1703</ele>
        <time>2012-04-19T19:49:32Z</time>
      </trkpt>
      <trkpt lat="59.4639286" lon="17.8010077">
        <ele>24.1703</ele>
        <time>2012-04-19T19:49:34Z</time>
      </trkpt>
      <trkpt lat="59.463748" lon="17.8009196">
        <ele>20.8057</ele>
        <time>2012-04-19T19:49:41Z</time>
      </trkpt>
      <trkpt lat="59.4635892" lon="17.8008742">
        <ele>20.8057</ele>
        <time>2012-04-19T19:49:47Z</time>
      </trkpt>
      <trkpt lat="59.4634689" lon="17.8008952">
        <ele>22.2476</ele>
        <time>2012-04-19T19:49:52Z</time>
      </trkpt>
      <trkpt lat="59.4633513" lon="17.8010079">
        <ele>22.7283</ele>
        <time>2012-04-19T19:49:57Z</time>
      </trkpt>
      <trkpt lat="59.4631806" lon="17.8011796">
        <ele>22.2476</ele>
        <time>2012-04-19T19:50:04Z</time>
      </trkpt>
      <trkpt lat="59.4630669" lon="17.8012561">
        <ele>24.1703</ele>
        <time>2012-04-19T19:50:09Z</time>
      </trkpt>
      <trkpt lat="59.4629288" lon="17.8013647">
        <ele>24.651</ele>
        <time>2012-04-19T19:50:14Z</time>
      </trkpt>
      <trkpt lat="59.4628137" lon="17.8014518">
        <ele>26.0929</ele>
        <time>2012-04-19T19:50:19Z</time>
      </trkpt>
      <trkpt lat="59.462664" lon="17.8015513">
        <ele>28.0155</ele>
        <time>2012-04-19T19:50:25Z</time>
      </trkpt>
      <trkpt lat="59.4624817" lon="17.8016244">
        <ele>27.5349</ele>
        <time>2012-04-19T19:50:32Z</time>
      </trkpt>
      <trkpt lat="59.4624289" lon="17.8016446">
        <ele>27.0543</ele>
        <time>2012-04-19T19:50:34Z</time>
      </trkpt>
      <trkpt lat="59.4622983" lon="17.8015869">
        <ele>24.651</ele>
        <time>2012-04-19T19:50:39Z</time>
      </trkpt>
      <trkpt lat="59.4622057" lon="17.8015808">
        <ele>25.1317</ele>
        <time>2012-04-19T19:50:43Z</time>
      </trkpt>
      <trkpt lat="59.4621046" lon="17.8016843">
        <ele>28.4962</ele>
        <time>2012-04-19T19:50:48Z</time>
      </trkpt>
      <trkpt lat="59.462086" lon="17.801707">
        <ele>28.4962</ele>
        <time>2012-04-19T19:50:49Z</time>
      </trkpt>
      <trkpt lat="59.4619418" lon="17.8018109">
        <ele>29.4575</ele>
        <time>2012-04-19T19:50:55Z</time>
      </trkpt>
      <trkpt lat="59.4618217" lon="17.8018891">
        <ele>30.8995</ele>
        <time>2012-04-19T19:51:00Z</time>
      </trkpt>
      <trkpt lat="59.4616796" lon="17.8019934">
        <ele>29.4575</ele>
        <time>2012-04-19T19:51:06Z</time>
      </trkpt>
      <trkpt lat="59.4615104" lon="17.8021121">
        <ele>28.0155</ele>
        <time>2012-04-19T19:51:13Z</time>
      </trkpt>
      <trkpt lat="59.461428" lon="17.8022635">
        <ele>28.9769</ele>
        <time>2012-04-19T19:51:18Z</time>
      </trkpt>
      <trkpt lat="59.4613191" lon="17.8023548">
        <ele>28.9769</ele>
        <time>2012-04-19T19:51:23Z</time>
      </trkpt>
      <trkpt lat="59.4612104" lon="17.8024335">
        <ele>33.7834</ele>
        <time>2012-04-19T19:51:28Z</time>
      </trkpt>
      <trkpt lat="59.4611089" lon="17.8024983">
        <ele>34.2642</ele>
        <time>2012-04-19T19:51:32Z</time>
      </trkpt>
      <trkpt lat="59.4610167" lon="17.8025739">
        <ele>34.2642</ele>
        <time>2012-04-19T19:51:36Z</time>
      </trkpt>
      <trkpt lat="59.4608845" lon="17.8027069">
        <ele>37.6287</ele>
        <time>2012-04-19T19:51:42Z</time>
      </trkpt>
      <trkpt lat="59.4608137" lon="17.8027624">
        <ele>38.1094</ele>
        <time>2012-04-19T19:51:45Z</time>
      </trkpt>
      <trkpt lat="59.4606935" lon="17.8029487">
        <ele>37.6287</ele>
        <time>2012-04-19T19:51:51Z</time>
      </trkpt>
      <trkpt lat="59.4606151" lon="17.8030472">
        <ele>36.6675</ele>
        <time>2012-04-19T19:51:54Z</time>
      </trkpt>
      <trkpt lat="59.4605712" lon="17.8031224">
        <ele>37.1481</ele>
        <time>2012-04-19T19:51:56Z</time>
      </trkpt>
      <trkpt lat="59.4604301" lon="17.8033072">
        <ele>40.9934</ele>
        <time>2012-04-19T19:52:03Z</time>
      </trkpt>
      <trkpt lat="59.4602765" lon="17.8033957">
        <ele>43.3966</ele>
        <time>2012-04-19T19:52:09Z</time>
      </trkpt>
      <trkpt lat="59.4601165" lon="17.8034736">
        <ele>44.358</ele>
        <time>2012-04-19T19:52:15Z</time>
      </trkpt>
      <trkpt lat="59.4600035" lon="17.8035979">
        <ele>44.358</ele>
        <time>2012-04-19T19:52:20Z</time>
      </trkpt>
      <trkpt lat="59.4598947" lon="17.8037243">
        <ele>40.0321</ele>
        <time>2012-04-19T19:52:25Z</time>
      </trkpt>
      <trkpt lat="59.4597757" lon="17.8038853">
        <ele>40.0321</ele>
        <time>2012-04-19T19:52:30Z</time>
      </trkpt>
      <trkpt lat="59.4596627" lon="17.8040492">
        <ele>38.5901</ele>
        <time>2012-04-19T19:52:35Z</time>
      </trkpt>
      <trkpt lat="59.459586" lon="17.8041652">
        <ele>35.2255</ele>
        <time>2012-04-19T19:52:39Z</time>
      </trkpt>
      <trkpt lat="59.4594832" lon="17.8043263">
        <ele>36.1868</ele>
        <time>2012-04-19T19:52:44Z</time>
      </trkpt>
      <trkpt lat="59.4593938" lon="17.8044925">
        <ele>39.5513</ele>
        <time>2012-04-19T19:52:49Z</time>
      </trkpt>
      <trkpt lat="59.4593104" lon="17.8046006">
        <ele>41.474</ele>
        <time>2012-04-19T19:52:53Z</time>
      </trkpt>
      <trkpt lat="59.4591535" lon="17.8045828">
        <ele>40.5128</ele>
        <time>2012-04-19T19:52:59Z</time>
      </trkpt>
      <trkpt lat="59.4590486" lon="17.8044388">
        <ele>35.2255</ele>
        <time>2012-04-19T19:53:03Z</time>
      </trkpt>
    </trkseg>
  </trk>
</gpx>